Time;durP1;ratioP1;P1;durP2;ratioP2;P2;SDS_P1;SDS_P2;PMS_P1;PMS_P2;Temp;Humidity;BMP_temperature;BMP_pressure;BME280_temperature;BME280_humidity;BME280_pressure;Samples;Min_cycle;Max_cycle;Signal;HPM_P1;HPM_P2
2021/01/07 05:02:14;;;;;;;16.33;9.80;;;;;;;2.40;76.30;99501.13;5254673;22;20072;-56
2021/01/07 05:04:50;;;;;;;17.27;10.25;;;;;;;2.41;75.14;99507.28;5011150;28;20123;-56
2021/01/07 05:07:18;;;;;;;17.05;10.00;;;;;;;2.29;75.66;99503.41;5010409;28;20037;-53
2021/01/07 05:09:44;;;;;;;17.13;10.15;;;;;;;2.34;76.51;99503.66;5009821;28;20040;-53
2021/01/07 05:12:11;;;;;;;15.77;9.52;;;;;;;2.37;75.78;99503.31;5012107;28;20051;-54
2021/01/07 05:14:44;;;;;;;19.23;11.75;;;;;;;2.30;75.75;99503.22;5010174;28;20045;-54
2021/01/07 05:17:14;;;;;;;15.63;9.55;;;;;;;2.41;75.38;99508.09;5009877;28;20040;-55
2021/01/07 05:19:40;;;;;;;15.27;9.98;;;;;;;2.38;75.44;99500.47;5004943;28;20099;-56
2021/01/07 05:22:06;;;;;;;17.42;9.63;;;;;;;2.27;76.14;99508.91;5006558;28;20143;-56
2021/01/07 05:24:33;;;;;;;19.40;11.10;;;;;;;2.37;75.54;99512.16;4990771;28;20037;-54
2021/01/07 05:27:25;;;;;;;19.05;9.75;;;;;;;2.38;74.36;99508.47;5006190;28;20128;-54
2021/01/07 05:29:51;;;;;;;17.33;9.60;;;;;;;2.34;74.76;99509.00;5003252;28;20044;-55
2021/01/07 05:32:34;;;;;;;18.20;10.75;;;;;;;2.30;75.24;99513.06;5008102;28;20045;-54
2021/01/07 05:35:00;;;;;;;15.68;9.57;;;;;;;2.38;75.68;99513.81;4988567;28;20033;-53
2021/01/07 05:37:36;;;;;;;15.05;9.50;;;;;;;2.47;74.84;99506.53;5006247;28;20089;-55
2021/01/07 05:40:03;;;;;;;15.40;9.10;;;;;;;2.39;73.45;99496.78;5007911;28;20041;-55
2021/01/07 05:42:36;;;;;;;16.33;9.77;;;;;;;2.11;75.10;99495.75;5007922;28;20387;-55
2021/01/07 05:45:06;;;;;;;15.38;9.82;;;;;;;2.13;75.64;99505.22;5008332;28;20556;-54
2021/01/07 05:47:38;;;;;;;15.15;9.82;;;;;;;2.25;75.86;99502.94;5009710;28;20041;-54
2021/01/07 05:50:05;;;;;;;16.83;9.50;;;;;;;2.22;75.44;99495.28;5005672;28;20041;-54
2021/01/07 05:52:32;;;;;;;17.20;9.77;;;;;;;2.29;74.68;99493.56;4989504;28;20322;-55
2021/01/07 05:54:59;;;;;;;14.95;9.57;;;;;;;2.25;75.18;99502.94;4988086;28;20099;-54
2021/01/07 05:57:25;;;;;;;14.00;8.35;;;;;;;2.23;75.10;99502.28;5007353;28;20045;-56
2021/01/07 05:59:51;;;;;;;14.82;8.68;;;;;;;2.31;75.13;99504.06;4990891;28;20037;-54
2021/01/07 06:02:17;;;;;;;14.73;8.98;;;;;;;2.26;76.14;99501.09;5006780;28;20033;-54
2021/01/07 06:04:47;;;;;;;16.65;9.25;;;;;;;2.18;75.78;99505.53;5008090;28;20037;-56
2021/01/07 06:07:16;;;;;;;15.82;9.48;;;;;;;2.11;75.60;99514.41;4991703;28;20048;-54
2021/01/07 06:09:46;;;;;;;15.00;8.85;;;;;;;2.25;75.35;99510.09;5006146;28;20048;-55
2021/01/07 06:12:12;;;;;;;18.15;10.20;;;;;;;2.18;75.90;99510.03;5006522;28;20095;-53
2021/01/07 06:14:45;;;;;;;16.13;9.45;;;;;;;2.21;75.05;99506.97;5007638;28;20036;-54
2021/01/07 06:17:13;;;;;;;16.20;8.60;;;;;;;2.33;75.50;99516.19;4991637;28;20052;-57
2021/01/07 06:19:40;;;;;;;13.68;8.20;;;;;;;2.34;74.13;99509.84;5007965;28;20124;-53
2021/01/07 06:22:09;;;;;;;13.95;7.57;;;;;;;2.25;75.03;99510.09;5007379;28;20055;-57
2021/01/07 06:24:39;;;;;;;11.25;6.93;;;;;;;3.15;80.05;99506.16;5007700;28;20044;-56
2021/01/07 06:27:31;;;;;;;13.00;7.82;;;;;;;2.68;73.30;99511.94;5007726;28;20212;-56
2021/01/07 06:30:17;;;;;;;12.83;6.97;;;;;;;2.63;73.16;99506.34;4988678;28;20037;-54
2021/01/07 06:32:45;;;;;;;14.48;7.25;;;;;;;2.89;75.94;99514.66;4977811;28;20289;-56
2021/01/07 06:35:13;;;;;;;11.63;7.68;;;;;;;3.50;77.96;99499.13;4988001;28;20235;-53
2021/01/07 06:37:42;;;;;;;12.05;6.90;;;;;;;2.71;72.53;99508.09;4989872;28;20495;-54
2021/01/07 06:40:10;;;;;;;12.02;7.40;;;;;;;2.94;72.12;99508.78;4973345;28;20042;-54
2021/01/07 06:42:40;;;;;;;12.88;7.60;;;;;;;2.55;72.15;99517.94;5006836;28;20380;-54
2021/01/07 06:45:08;;;;;;;12.93;7.93;;;;;;;2.42;72.83;99524.94;4990698;28;20042;-54
2021/01/07 06:47:33;;;;;;;14.18;8.18;;;;;;;2.48;72.14;99538.38;5009432;28;20033;-53
2021/01/07 06:50:00;;;;;;;12.20;7.32;;;;;;;2.10;72.75;99537.56;5004435;28;20548;-53
2021/01/07 06:52:35;;;;;;;14.32;8.90;;;;;;;2.27;73.48;99540.94;5005414;28;20481;-53
2021/01/07 06:55:01;;;;;;;20.92;12.77;;;;;;;2.26;74.05;99539.28;5003204;28;20386;-55
2021/01/07 06:57:28;;;;;;;14.07;9.90;;;;;;;1.93;72.88;99541.41;5003016;28;20041;-54
2021/01/07 07:00:04;;;;;;;17.15;8.30;;;;;;;1.86;73.26;99545.78;4997407;28;20081;-55
2021/01/07 07:02:30;;;;;;;14.90;8.10;;;;;;;2.06;72.73;99551.47;5004159;28;20030;-54
2021/01/07 07:05:05;;;;;;;14.48;8.48;;;;;;;2.08;73.64;99541.44;5007859;28;20065;-55
2021/01/07 07:07:37;;;;;;;12.13;7.63;;;;;;;1.81;72.48;99550.84;5006788;28;20045;-53
2021/01/07 07:10:18;;;;;;;11.52;7.32;;;;;;;2.02;73.02;99547.50;5005454;28;20046;-55
2021/01/07 07:12:49;;;;;;;13.55;8.00;;;;;;;1.67;76.80;99547.13;5006658;28;20048;-55
2021/01/07 07:15:24;;;;;;;14.85;8.40;;;;;;;1.92;74.51;99557.59;5007016;28;20192;-54
2021/01/07 07:17:55;;;;;;;11.77;7.30;;;;;;;1.79;77.01;99552.84;4988624;28;20030;-56
2021/01/07 07:20:24;;;;;;;13.95;7.80;;;;;;;2.00;75.42;99558.34;4991142;28;20069;-56
2021/01/07 07:22:50;;;;;;;15.75;9.18;;;;;;;2.01;73.84;99559.16;5005922;28;20046;-56
2021/01/07 07:25:24;;;;;;;16.80;9.02;;;;;;;2.04;74.42;99567.63;5009486;28;20452;-56
2021/01/07 07:27:51;;;;;;;15.73;9.48;;;;;;;2.19;73.85;99578.34;4999438;28;20041;-56
2021/01/07 07:30:29;;;;;;;12.70;8.35;;;;;;;2.24;75.39;99565.28;4999106;28;20040;-54
2021/01/07 07:32:57;;;;;;;15.55;9.40;;;;;;;2.16;75.08;99566.19;4996902;28;20048;-55
2021/01/07 07:35:41;;;;;;;17.38;9.57;;;;;;;2.28;73.65;99571.09;4995616;28;20040;-55
2021/01/07 07:38:10;;;;;;;13.40;8.40;;;;;;;2.03;73.91;99568.66;4995929;28;20482;-54
2021/01/07 07:40:39;;;;;;;15.30;8.75;;;;;;;2.24;74.26;99567.94;5010287;28;20059;-53
2021/01/07 07:43:06;;;;;;;16.50;8.75;;;;;;;2.34;74.21;99570.34;5009115;28;20041;-53
2021/01/07 07:45:40;;;;;;;16.98;9.90;;;;;;;2.36;74.18;99579.00;5018521;28;20068;-54
2021/01/07 07:48:10;;;;;;;18.63;10.18;;;;;;;2.35;74.99;99577.34;5003608;28;20086;-53
2021/01/07 07:50:35;;;;;;;14.95;9.50;;;;;;;2.33;75.28;99582.03;5009031;28;20045;-54
2021/01/07 07:53:08;;;;;;;15.57;9.43;;;;;;;2.43;73.95;99579.94;5006930;28;20091;-55
2021/01/07 07:55:35;;;;;;;15.63;9.55;;;;;;;2.35;75.04;99588.03;5009055;28;20075;-54
2021/01/07 07:58:14;;;;;;;15.75;8.65;;;;;;;2.33;74.05;99579.38;5009368;28;20099;-54
2021/01/07 08:00:51;;;;;;;16.52;9.70;;;;;;;2.32;74.60;99580.38;5009501;28;20406;-52
2021/01/07 08:03:27;;;;;;;15.65;9.05;;;;;;;2.26;74.33;99584.59;5014881;28;20040;-55
2021/01/07 08:05:54;;;;;;;16.13;9.43;;;;;;;2.29;74.73;99580.75;4996466;28;20045;-53
2021/01/07 08:08:22;;;;;;;15.65;10.00;;;;;;;2.30;74.03;99587.75;5012237;28;20561;-53
2021/01/07 08:10:49;;;;;;;14.85;8.77;;;;;;;2.23;72.86;99586.78;5011740;28;20112;-55
2021/01/07 08:13:18;;;;;;;14.40;8.75;;;;;;;2.26;73.74;99594.44;5009644;28;20045;-53
2021/01/07 08:15:48;;;;;;;15.57;8.45;;;;;;;2.35;73.71;99599.50;5009915;28;20033;-54
2021/01/07 08:18:28;;;;;;;14.55;8.35;;;;;;;2.45;73.38;99596.59;4999596;28;20083;-55
2021/01/07 08:21:06;;;;;;;15.18;8.45;;;;;;;2.47;72.92;99598.06;5006151;28;20058;-53
2021/01/07 08:23:32;;;;;;;13.77;9.32;;;;;;;2.55;73.48;99599.81;5005356;28;20041;-54
2021/01/07 08:26:00;;;;;;;17.30;10.68;;;;;;;2.55;72.51;99597.16;4992850;28;20037;-54
2021/01/07 08:28:31;;;;;;;13.68;8.60;;;;;;;2.69;71.58;99596.34;5008291;28;20501;-55
2021/01/07 08:31:05;;;;;;;12.38;7.53;;;;;;;2.62;72.45;99602.59;5024505;28;20041;-54
2021/01/07 08:33:31;;;;;;;14.07;8.05;;;;;;;2.52;73.54;99597.53;5012283;28;20572;-53
2021/01/07 08:36:04;;;;;;;14.77;8.55;;;;;;;2.31;74.48;99608.09;5010569;28;20044;-54
2021/01/07 08:38:32;;;;;;;16.17;9.25;;;;;;;2.50;72.58;99610.22;5011979;28;20435;-53
2021/01/07 08:41:14;;;;;;;15.70;9.20;;;;;;;2.37;73.03;99607.34;5011775;28;20386;-53
2021/01/07 08:43:44;;;;;;;13.00;8.45;;;;;;;2.37;73.89;99600.16;5009573;28;20116;-54
2021/01/07 08:46:22;;;;;;;16.05;8.18;;;;;;;2.44;73.26;99605.59;5010331;28;20033;-54
2021/01/07 08:49:09;;;;;;;13.20;7.47;;;;;;;2.46;73.18;99609.75;4992631;28;20037;-54
2021/01/07 08:51:40;;;;;;;14.30;7.80;;;;;;;2.51;73.23;99603.88;5006811;28;20041;-54
2021/01/07 08:54:13;;;;;;;12.90;7.20;;;;;;;2.45;71.93;99601.91;5000884;28;20045;-54
2021/01/07 08:56:43;;;;;;;13.80;7.78;;;;;;;2.56;71.07;99601.47;4996534;28;20041;-53
2021/01/07 08:59:25;;;;;;;14.55;7.40;;;;;;;2.64;71.59;99598.75;4997005;28;20053;-54
2021/01/07 09:01:54;;;;;;;14.32;8.48;;;;;;;2.57;72.94;99607.63;4989532;28;20033;-55
2021/01/07 09:04:41;;;;;;;13.90;7.50;;;;;;;2.51;72.88;99604.72;4989766;28;20033;-54
2021/01/07 09:07:08;;;;;;;15.70;7.97;;;;;;;2.70;71.49;99602.50;5006437;28;20041;-54
2021/01/07 09:09:43;;;;;;;10.65;7.05;;;;;;;2.77;71.84;99612.25;4990326;28;20046;-54
2021/01/07 09:12:18;;;;;;;12.55;6.72;;;;;;;2.23;69.56;99614.28;4991850;28;20045;-55
2021/01/07 09:15:23;;;;;;;13.23;7.85;;;;;;;2.50;72.80;99608.38;4989526;28;20037;-54
2021/01/07 09:17:57;;;;;;;10.57;6.95;;;;;;;2.68;70.95;99608.03;4990781;28;20045;-54
2021/01/07 09:20:30;;;;;;;11.65;6.93;;;;;;;2.67;72.66;99603.69;4980376;28;20080;-54
2021/01/07 09:23:06;;;;;;;12.60;7.50;;;;;;;2.72;72.28;99613.84;4992768;28;20724;-55
2021/01/07 09:25:33;;;;;;;11.15;6.55;;;;;;;2.75;70.84;99613.47;5008581;28;20045;-54
2021/01/07 09:27:59;;;;;;;11.82;7.15;;;;;;;2.78;70.95;99610.41;5009650;28;20095;-55
2021/01/07 09:30:25;;;;;;;12.27;7.25;;;;;;;2.76;72.19;99612.47;5008027;28;20506;-53
2021/01/07 09:32:51;;;;;;;11.20;6.95;;;;;;;2.66;72.37;99609.22;5007459;28;20658;-54
2021/01/07 09:35:17;;;;;;;15.13;7.72;;;;;;;2.84;71.62;99609.69;5008850;28;20061;-54
2021/01/07 09:37:43;;;;;;;12.23;7.75;;;;;;;2.87;70.62;99606.66;4989753;28;20128;-55
2021/01/07 09:40:08;;;;;;;11.40;6.60;;;;;;;2.69;72.89;99601.66;5006887;28;20768;-54
2021/01/07 09:42:35;;;;;;;12.52;7.78;;;;;;;2.89;71.17;99612.63;5007966;28;20044;-54
2021/01/07 09:45:01;;;;;;;12.82;7.68;;;;;;;2.80;72.15;99605.72;5001733;28;20037;-54
2021/01/07 09:47:27;;;;;;;10.65;6.28;;;;;;;2.80;71.38;99601.22;5007604;28;20410;-55
2021/01/07 09:49:53;;;;;;;12.40;7.00;;;;;;;2.78;71.44;99611.25;5008874;28;20506;-54
2021/01/07 09:52:19;;;;;;;11.85;6.88;;;;;;;2.77;71.67;99598.09;4987620;28;20053;-55
2021/01/07 09:54:45;;;;;;;11.98;8.15;;;;;;;2.85;70.88;99598.84;5006178;28;20036;-56
2021/01/07 09:57:10;;;;;;;9.20;6.38;;;;;;;2.83;71.77;99603.53;5006881;28;20522;-55
2021/01/07 09:59:37;;;;;;;12.27;7.50;;;;;;;2.73;71.26;99588.81;5007638;28;20041;-53
2021/01/07 10:02:11;;;;;;;12.65;7.15;;;;;;;2.91;72.23;99591.91;5004342;28;20044;-54
2021/01/07 10:04:44;;;;;;;11.88;7.03;;;;;;;2.88;72.12;99600.31;5006622;28;20083;-53
2021/01/07 10:07:11;;;;;;;10.50;6.90;;;;;;;2.80;71.73;99595.88;5002216;28;20053;-54
2021/01/07 10:09:37;;;;;;;11.68;7.32;;;;;;;2.97;70.25;99588.53;5005494;28;20079;-54
2021/01/07 10:12:03;;;;;;;13.60;8.02;;;;;;;2.80;71.75;99595.06;5007739;28;20438;-54
2021/01/07 10:14:30;;;;;;;12.38;7.13;;;;;;;2.74;72.29;99590.47;5010103;28;20171;-54
2021/01/07 10:16:59;;;;;;;12.23;6.75;;;;;;;2.96;71.61;99586.03;5009433;28;20037;-55
2021/01/07 10:19:29;;;;;;;10.88;6.57;;;;;;;2.94;71.84;99583.53;5030250;28;20041;-55
2021/01/07 10:22:00;;;;;;;10.38;6.63;;;;;;;2.79;71.33;99591.56;5000018;28;20030;-57
2021/01/07 10:24:30;;;;;;;12.55;6.97;;;;;;;2.77;71.24;99592.78;4994322;28;20041;-56
2021/01/07 10:26:59;;;;;;;14.40;7.88;;;;;;;2.71;71.32;99586.31;4994121;28;20494;-55
2021/01/07 10:29:30;;;;;;;13.50;7.10;;;;;;;2.90;72.15;99590.25;5012483;28;20052;-55
2021/01/07 10:31:59;;;;;;;11.55;6.90;;;;;;;2.76;72.62;99591.09;5004805;28;20048;-57
2021/01/07 10:34:27;;;;;;;12.13;6.82;;;;;;;3.01;72.31;99594.28;5011057;28;20361;-54
2021/01/07 10:36:57;;;;;;;11.63;6.30;;;;;;;3.01;71.31;99594.28;5010201;28;20265;-54
2021/01/07 10:39:25;;;;;;;13.65;7.82;;;;;;;2.92;71.88;99591.72;5011776;28;20151;-53
2021/01/07 10:41:56;;;;;;;11.77;7.28;;;;;;;2.86;71.29;99594.31;5027555;28;20045;-54
2021/01/07 10:44:22;;;;;;;11.20;6.53;;;;;;;3.07;70.92;99594.41;4995243;28;20037;-54
2021/01/07 10:46:54;;;;;;;11.30;6.40;;;;;;;3.11;70.59;99592.19;5011439;28;20577;-55
2021/01/07 10:49:20;;;;;;;10.75;7.13;;;;;;;3.03;71.29;99593.09;4994532;28;20057;-55
2021/01/07 10:51:57;;;;;;;11.85;7.13;;;;;;;3.07;70.86;99586.38;5009698;28;20068;-55
2021/01/07 10:55:00;;;;;;;11.95;7.10;;;;;;;3.07;70.88;99597.06;5008666;28;20053;-55
2021/01/07 10:57:28;;;;;;;12.50;7.70;;;;;;;3.11;71.92;99589.53;5008053;28;20037;-54
2021/01/07 11:00:05;;;;;;;12.63;7.43;;;;;;;3.23;71.35;99588.03;5011388;28;20041;-55
2021/01/07 11:03:02;;;;;;;10.80;6.30;;;;;;;3.30;70.90;99593.44;5008280;28;20053;-55
2021/01/07 11:05:39;;;;;;;10.35;6.57;;;;;;;3.20;70.96;99586.56;4990879;28;20056;-55
2021/01/07 11:08:14;;;;;;;10.85;6.38;;;;;;;3.20;71.17;99583.06;5009057;28;20037;-55
2021/01/07 11:10:44;;;;;;;9.23;5.80;;;;;;;3.34;70.57;99592.06;5006586;28;20044;-54
2021/01/07 11:13:11;;;;;;;13.13;6.47;;;;;;;3.47;70.61;99592.19;4995071;28;20056;-56
2021/01/07 11:15:40;;;;;;;11.40;6.85;;;;;;;3.43;69.80;99586.41;4991483;28;20046;-55
2021/01/07 11:18:13;;;;;;;11.20;7.25;;;;;;;3.44;68.50;99582.72;5015156;28;20041;-54
2021/01/07 11:20:42;;;;;;;9.98;6.35;;;;;;;3.46;68.93;99583.34;5009579;28;20041;-55
2021/01/07 11:23:08;;;;;;;11.57;7.07;;;;;;;3.18;69.31;99580.56;4993243;28;20041;-54
2021/01/07 11:25:34;;;;;;;13.93;6.38;;;;;;;3.39;69.79;99577.13;4993901;28;20037;-54
2021/01/07 11:28:01;;;;;;;10.30;6.10;;;;;;;3.43;68.14;99575.72;4994210;28;20033;-54
2021/01/07 11:30:27;;;;;;;10.68;6.03;;;;;;;3.38;67.29;99566.59;4999310;28;20449;-55
2021/01/07 11:32:54;;;;;;;9.73;5.97;;;;;;;3.40;67.99;99560.06;5003158;28;20063;-53
2021/01/07 11:35:20;;;;;;;10.35;6.13;;;;;;;3.36;68.66;99566.78;5000456;28;20045;-54
2021/01/07 11:37:53;;;;;;;9.32;6.18;;;;;;;3.31;69.43;99569.22;5002301;28;20067;-53
2021/01/07 11:40:24;;;;;;;11.80;6.68;;;;;;;3.42;69.07;99563.38;4999193;28;20042;-54
2021/01/07 11:43:18;;;;;;;10.05;6.00;;;;;;;3.56;68.43;99556.34;4993654;28;20045;-54
2021/01/07 11:45:58;;;;;;;10.43;5.97;;;;;;;3.37;67.05;99555.09;5004100;28;20478;-54
2021/01/07 11:48:25;;;;;;;11.48;5.78;;;;;;;3.49;66.42;99563.44;4997238;28;20037;-54
2021/01/07 11:50:59;;;;;;;11.45;5.93;;;;;;;3.37;66.89;99551.59;4994371;28;20457;-55
2021/01/07 11:53:28;;;;;;;9.80;6.18;;;;;;;3.28;67.15;99546.38;4991047;28;20056;-57
2021/01/07 11:56:00;;;;;;;7.70;5.22;;;;;;;3.56;67.78;99551.00;5009721;28;20067;-55
2021/01/07 11:58:27;;;;;;;9.10;6.50;;;;;;;3.79;67.81;99553.47;4991828;28;20045;-53
2021/01/07 12:00:54;;;;;;;10.35;5.97;;;;;;;3.57;64.82;99544.63;4993351;28;20769;-54
2021/01/07 12:03:21;;;;;;;11.90;6.18;;;;;;;3.60;65.41;99546.91;4991906;28;20458;-54
2021/01/07 12:05:46;;;;;;;11.70;6.20;;;;;;;3.53;68.01;99544.19;4998623;28;20119;-54
2021/01/07 12:08:45;;;;;;;10.85;6.68;;;;;;;3.73;66.98;99541.69;4999650;28;20590;-54
2021/01/07 12:11:20;;;;;;;8.40;5.80;;;;;;;3.55;67.47;99535.97;5000660;28;20033;-55
2021/01/07 12:13:56;;;;;;;9.88;6.00;;;;;;;3.71;68.39;99540.22;5000222;28;20053;-54
2021/01/07 12:16:32;;;;;;;8.93;5.80;;;;;;;3.71;66.70;99546.41;4996438;28;20041;-54
2021/01/07 12:18:59;;;;;;;9.55;5.93;;;;;;;3.76;65.10;99546.66;4993880;28;20060;-54
2021/01/07 12:21:26;;;;;;;10.40;6.10;;;;;;;3.68;65.92;99538.78;5004382;28;20555;-55
2021/01/07 12:23:52;;;;;;;8.48;5.78;;;;;;;3.51;68.42;99529.34;5005253;28;20546;-53
2021/01/07 12:26:18;;;;;;;10.07;6.65;;;;;;;3.49;68.63;99536.72;4995535;28;20040;-55
2021/01/07 12:28:50;;;;;;;13.15;6.13;;;;;;;3.85;68.03;99531.31;4999290;28;20037;-54
2021/01/07 12:31:17;;;;;;;12.23;6.30;;;;;;;3.59;67.59;99527.38;4999999;28;20486;-55
2021/01/07 12:33:58;;;;;;;10.55;5.97;;;;;;;3.72;68.36;99533.84;4999195;28;20533;-54
2021/01/07 12:37:01;;;;;;;10.30;6.10;;;;;;;3.55;69.74;99530.63;5014410;28;20037;-54
2021/01/07 12:39:35;;;;;;;9.55;6.32;;;;;;;3.53;69.01;99535.34;5008965;28;20034;-55
2021/01/07 12:42:06;;;;;;;11.70;6.75;;;;;;;3.58;69.22;99527.56;5000121;28;20037;-54
2021/01/07 12:44:35;;;;;;;10.45;6.40;;;;;;;3.39;68.70;99528.19;4997158;28;20056;-54
2021/01/07 12:47:00;;;;;;;10.13;5.90;;;;;;;3.30;69.59;99530.16;5012561;28;20124;-55
2021/01/07 12:49:30;;;;;;;9.82;6.50;;;;;;;3.26;68.69;99526.19;4999613;28;20211;-55
2021/01/07 12:51:59;;;;;;;10.68;6.18;;;;;;;3.16;69.48;99528.34;4996215;28;20071;-55
2021/01/07 12:54:39;;;;;;;10.15;5.82;;;;;;;3.29;69.17;99531.16;5097753;27;20117;-53
2021/01/07 12:57:23;;;;;;;10.43;5.85;;;;;;;3.27;70.04;99527.84;5066203;28;20068;-54
2021/01/07 12:59:52;;;;;;;9.73;5.45;;;;;;;3.22;69.59;99515.09;5029236;28;20079;-53
2021/01/07 13:02:45;;;;;;;10.45;6.32;;;;;;;4.05;75.00;99523.44;5022097;28;20052;-54
2021/01/07 13:05:26;;;;;;;10.15;6.38;;;;;;;3.38;69.63;99526.53;5043413;28;20044;-54
2021/01/07 13:07:58;;;;;;;10.30;6.47;;;;;;;3.23;69.91;99532.75;5054891;28;20062;-54
2021/01/07 13:10:29;;;;;;;9.18;5.97;;;;;;;3.19;69.37;99523.47;5053652;28;20048;-54
2021/01/07 13:12:58;;;;;;;11.05;6.32;;;;;;;3.36;71.74;99523.22;5070442;28;20040;-55
2021/01/07 13:15:24;;;;;;;10.27;6.40;;;;;;;3.23;68.87;99535.41;5062052;28;20080;-55
2021/01/07 13:17:50;;;;;;;10.82;6.15;;;;;;;3.20;69.31;99537.66;5057700;28;20515;-54
2021/01/07 13:20:16;;;;;;;9.82;5.78;;;;;;;3.10;70.08;99543.28;5053031;28;20051;-54
2021/01/07 13:22:46;;;;;;;11.05;6.57;;;;;;;3.17;69.78;99533.50;5055681;28;20123;-54
2021/01/07 13:25:17;;;;;;;9.18;5.95;;;;;;;3.17;69.03;99530.00;5062826;28;20047;-53
2021/01/07 13:27:43;;;;;;;10.18;6.15;;;;;;;3.03;69.83;99537.03;5067736;28;20079;-55
2021/01/07 13:30:10;;;;;;;9.70;6.22;;;;;;;3.20;69.33;99537.66;5061263;28;20054;-53
2021/01/07 13:32:36;;;;;;;8.10;5.35;;;;;;;3.67;70.94;99525.59;5061013;28;20064;-55
2021/01/07 13:35:03;;;;;;;7.95;5.47;;;;;;;3.21;70.80;99542.81;5066325;28;20128;-53
2021/01/07 13:37:29;;;;;;;9.13;5.57;;;;;;;2.98;69.69;99533.28;5055912;28;20065;-54
2021/01/07 13:39:55;;;;;;;11.13;6.30;;;;;;;2.98;69.53;99538.63;5027042;28;20529;-54
2021/01/07 13:42:21;;;;;;;9.35;5.40;;;;;;;2.83;69.27;99539.47;5020119;28;20332;-55
2021/01/07 13:44:50;;;;;;;9.18;5.57;;;;;;;3.10;68.33;99542.47;5029324;28;20047;-53
2021/01/07 13:47:20;;;;;;;10.57;5.78;;;;;;;3.20;68.33;99553.69;5028529;28;21620;-54
2021/01/07 13:49:52;;;;;;;10.40;5.95;;;;;;;3.03;68.74;99552.22;5053227;28;20055;-55
2021/01/07 13:52:21;;;;;;;8.48;5.38;;;;;;;2.81;69.24;99560.16;5021257;28;20063;-54
2021/01/07 13:54:50;;;;;;;10.88;6.18;;;;;;;2.94;68.88;99558.69;5023469;28;20511;-54
2021/01/07 13:57:15;;;;;;;10.63;5.75;;;;;;;3.07;67.59;99551.69;5024775;28;20486;-53
2021/01/07 13:59:42;;;;;;;9.38;5.55;;;;;;;2.88;68.69;99547.72;5021989;28;20041;-55
2021/01/07 14:02:09;;;;;;;10.85;6.38;;;;;;;2.90;68.87;99550.22;5023186;28;20037;-53
2021/01/07 14:04:39;;;;;;;13.98;6.70;;;;;;;2.80;70.47;99560.34;5017566;28;20041;-54
2021/01/07 14:07:09;;;;;;;10.32;6.07;;;;;;;2.73;68.67;99554.09;5040953;28;20051;-53
2021/01/07 14:09:41;;;;;;;7.90;5.25;;;;;;;2.78;69.24;99547.19;5047690;28;20040;-56
2021/01/07 14:12:12;;;;;;;9.18;5.95;;;;;;;2.92;68.82;99553.53;5052421;28;20153;-52
2021/01/07 14:14:41;;;;;;;8.73;5.80;;;;;;;2.87;69.05;99563.94;5048889;28;20044;-53
2021/01/07 14:17:06;;;;;;;10.63;6.88;;;;;;;2.88;69.22;99558.41;5051605;28;20059;-53
2021/01/07 14:19:33;;;;;;;8.70;5.88;;;;;;;2.99;69.35;99553.63;5049588;28;20127;-54
2021/01/07 14:21:59;;;;;;;11.65;6.78;;;;;;;2.91;70.25;99557.22;5046896;28;20035;-54
2021/01/07 14:24:25;;;;;;;10.77;6.13;;;;;;;2.89;68.84;99560.06;5049236;28;20050;-53
2021/01/07 14:27:07;;;;;;;10.45;6.05;;;;;;;3.42;70.28;99554.53;5050009;28;20271;-54
2021/01/07 14:29:38;;;;;;;8.35;5.65;;;;;;;3.40;71.00;99567.25;5066414;28;20047;-53
2021/01/07 14:32:07;;;;;;;10.52;7.28;;;;;;;3.02;69.86;99564.75;5050655;28;20726;-54
2021/01/07 14:34:37;;;;;;;9.40;5.13;;;;;;;2.79;68.29;99564.84;5037029;28;20527;-54
2021/01/07 14:37:04;;;;;;;8.85;5.28;;;;;;;2.76;69.28;99565.25;5038564;28;20067;-54
2021/01/07 14:39:30;;;;;;;8.10;5.03;;;;;;;2.92;67.04;99565.03;5030990;28;20052;-54
2021/01/07 14:41:55;;;;;;;9.05;5.15;;;;;;;2.79;68.74;99577.38;5029122;28;20064;-54
2021/01/07 14:44:21;;;;;;;10.43;5.97;;;;;;;2.68;69.56;99567.16;5013895;28;20068;-56
2021/01/07 14:46:49;;;;;;;8.80;5.15;;;;;;;2.79;69.00;99572.88;5012488;28;20037;-55
2021/01/07 14:49:18;;;;;;;10.07;5.45;;;;;;;2.64;69.83;99581.91;5027626;28;20138;-54
2021/01/07 14:51:48;;;;;;;11.43;6.28;;;;;;;2.75;68.13;99581.44;5011849;28;20041;-54
2021/01/07 14:54:15;;;;;;;9.63;5.60;;;;;;;2.78;68.09;99578.38;5025772;28;20536;-54
2021/01/07 14:56:41;;;;;;;8.50;4.93;;;;;;;2.82;69.39;99575.16;5025010;28;20045;-54
2021/01/07 14:59:18;;;;;;;10.95;5.82;;;;;;;2.72;68.10;99577.28;5011172;28;20037;-53
2021/01/07 15:02:22;;;;;;;8.25;5.00;;;;;;;2.82;68.96;99583.19;5006035;28;20329;-55
2021/01/07 15:05:07;;;;;;;9.23;5.05;;;;;;;2.79;67.88;99580.03;5037080;28;20047;-54
2021/01/07 15:08:08;;;;;;;8.98;5.00;;;;;;;2.80;68.22;99579.03;5044280;28;20047;-54
2021/01/07 15:10:41;;;;;;;10.57;5.70;;;;;;;2.98;69.71;99584.00;4987830;28;20098;-55
2021/01/07 15:13:20;;;;;;;7.35;4.90;;;;;;;2.78;67.20;99579.22;5028399;28;20438;-55
2021/01/07 15:15:56;;;;;;;9.88;5.22;;;;;;;2.70;67.72;99568.63;5049018;28;20309;-55
2021/01/07 15:18:29;;;;;;;8.05;4.78;;;;;;;3.13;67.53;99576.78;5010681;28;20385;-54
2021/01/07 15:21:10;;;;;;;9.52;5.38;;;;;;;2.88;67.67;99582.44;5020073;28;20417;-55
2021/01/07 15:23:48;;;;;;;8.45;4.68;;;;;;;2.92;67.11;99585.56;5033369;28;20044;-55
2021/01/07 15:26:22;;;;;;;8.35;5.13;;;;;;;2.74;67.78;99585.94;5031924;28;20128;-54
2021/01/07 15:29:01;;;;;;;7.95;4.72;;;;;;;2.72;67.14;99581.81;5025435;28;20045;-55
2021/01/07 15:31:36;;;;;;;7.18;4.80;;;;;;;2.61;68.41;99587.59;5056779;28;20043;-56
2021/01/07 15:34:07;;;;;;;7.57;4.75;;;;;;;2.55;68.34;99584.63;5059993;28;20047;-54
2021/01/07 15:36:40;;;;;;;8.95;5.15;;;;;;;2.50;69.82;99586.22;5071781;28;20050;-54
2021/01/07 15:39:30;;;;;;;9.48;4.90;;;;;;;2.57;68.28;99589.78;5018969;28;20045;-53
2021/01/07 15:42:20;;;;;;;9.00;5.53;;;;;;;2.52;68.10;99587.69;5007029;28;20517;-57
2021/01/07 15:45:07;;;;;;;7.43;4.78;;;;;;;2.42;68.82;99588.97;5046415;28;20371;-54
2021/01/07 15:47:57;;;;;;;7.97;4.72;;;;;;;2.66;68.17;99588.69;5053129;28;20067;-54
2021/01/07 15:50:49;;;;;;;7.43;4.72;;;;;;;2.96;68.50;99584.19;5061355;28;20121;-53
2021/01/07 15:53:56;;;;;;;7.82;4.55;;;;;;;2.71;66.71;99590.81;5039716;28;20202;-54
2021/01/07 15:56:59;;;;;;;8.30;4.22;;;;;;;2.46;68.41;99585.75;5052109;28;20151;-54
2021/01/07 15:59:34;;;;;;;7.40;4.90;;;;;;;2.51;67.57;99594.03;5049018;28;20043;-54
2021/01/07 16:02:07;;;;;;;4.85;3.65;;;;;;;2.52;67.88;99589.53;5051528;28;20039;-53
2021/01/07 16:04:36;;;;;;;9.10;4.57;;;;;;;2.75;66.28;99584.13;5040879;28;20048;-54
2021/01/07 16:07:09;;;;;;;8.27;4.15;;;;;;;2.80;66.20;99589.72;5047756;28;20040;-54
2021/01/07 16:09:36;;;;;;;6.43;4.00;;;;;;;2.83;66.45;99594.69;5049160;28;20136;-53
2021/01/07 16:12:05;;;;;;;11.20;4.90;;;;;;;2.82;65.98;99588.53;5046442;28;20063;-54
2021/01/07 16:14:35;;;;;;;8.00;4.40;;;;;;;2.69;66.47;99591.00;5051581;28;20409;-55
2021/01/07 16:17:04;;;;;;;8.07;4.00;;;;;;;2.63;65.83;99590.91;5063416;28;20123;-54
2021/01/07 16:19:31;;;;;;;8.15;4.22;;;;;;;2.77;65.68;99588.22;5046956;28;20044;-53
2021/01/07 16:21:59;;;;;;;7.00;3.78;;;;;;;2.80;66.21;99587.88;5062955;28;20043;-56
2021/01/07 16:24:26;;;;;;;10.07;5.22;;;;;;;2.80;66.76;99587.03;5042069;28;20032;-54
2021/01/07 16:26:58;;;;;;;12.05;6.32;;;;;;;2.76;67.75;99593.78;5044313;28;20040;-54
2021/01/07 16:29:28;;;;;;;11.85;6.57;;;;;;;2.85;66.27;99588.16;5045075;28;20059;-54
2021/01/07 16:31:53;;;;;;;9.35;5.78;;;;;;;2.77;66.72;99588.22;5061131;28;20051;-54
2021/01/07 16:34:19;;;;;;;9.88;5.75;;;;;;;2.78;66.73;99594.41;5061726;28;20048;-54
2021/01/07 16:36:46;;;;;;;8.48;5.55;;;;;;;2.72;67.06;99595.97;5055970;28;20044;-53
2021/01/07 16:39:14;;;;;;;9.35;5.10;;;;;;;2.78;65.97;99603.22;5047238;28;20220;-53
2021/01/07 16:41:40;;;;;;;7.35;4.95;;;;;;;2.77;66.47;99593.56;5067222;28;20040;-54
2021/01/07 16:44:05;;;;;;;8.35;4.43;;;;;;;2.87;66.44;99601.31;5068170;28;20120;-53
2021/01/07 16:46:31;;;;;;;6.97;4.13;;;;;;;2.93;65.98;99600.56;5068475;28;20128;-54
2021/01/07 16:48:56;;;;;;;8.07;4.25;;;;;;;2.85;65.99;99598.84;5068776;28;20074;-55
2021/01/07 16:51:22;;;;;;;6.28;3.88;;;;;;;2.85;65.48;99596.16;5057898;28;20040;-53
2021/01/07 16:53:48;;;;;;;6.00;3.50;;;;;;;2.91;65.76;99608.75;5027809;28;20131;-54
2021/01/07 16:56:14;;;;;;;5.57;3.35;;;;;;;2.91;65.62;99603.41;5030202;28;20070;-55
2021/01/07 16:58:40;;;;;;;6.10;3.60;;;;;;;2.58;66.07;99593.28;5030840;28;20040;-54